Time;durP1;ratioP1;P1;durP2;ratioP2;P2;SDS_P1;SDS_P2;PMS_P1;PMS_P2;Temp;Humidity;BMP_temperature;BMP_pressure;BME280_temperature;BME280_humidity;BME280_pressure;Samples;Min_cycle;Max_cycle;Signal;HPM_P1;HPM_P2
2021/05/26 00:02:15;;;;;;;1.80;1.70;;;;;;;20.38;60.57;101826.52;1783521;79;21008;-48
2021/05/26 00:04:42;;;;;;;2.92;2.00;;;;;;;20.37;60.62;101826.14;1776440;79;21100;-47
2021/05/26 00:07:09;;;;;;;2.75;1.70;;;;;;;20.36;60.65;101828.38;1769965;79;21040;-50
2021/05/26 00:09:35;;;;;;;3.37;1.75;;;;;;;20.34;60.71;101828.91;1781061;79;21032;-47
2021/05/26 00:12:05;;;;;;;1.65;1.55;;;;;;;20.35;60.61;101831.09;1774577;79;21689;-49
2021/05/26 00:14:34;;;;;;;1.70;1.60;;;;;;;20.34;60.50;101830.23;1772221;80;21069;-50
2021/05/26 00:17:04;;;;;;;5.15;1.72;;;;;;;20.34;60.40;101826.27;1770388;79;21023;-50
2021/05/26 00:19:31;;;;;;;2.00;1.35;;;;;;;20.32;60.47;101820.67;1764147;79;21033;-48
2021/05/26 00:21:58;;;;;;;1.52;1.30;;;;;;;20.32;60.51;101822.83;1775501;79;20996;-53
2021/05/26 00:24:25;;;;;;;1.60;1.50;;;;;;;20.31;60.47;101826.42;1763115;80;21614;-50
2021/05/26 00:26:52;;;;;;;2.58;1.50;;;;;;;20.31;60.51;101826.42;1781643;80;21118;-51
2021/05/26 00:29:18;;;;;;;2.65;1.42;;;;;;;20.31;60.50;101826.42;1783441;79;21084;-48
2021/05/26 00:31:46;;;;;;;2.15;1.35;;;;;;;20.30;60.50;101827.33;1776935;79;21029;-47
2021/05/26 00:34:13;;;;;;;1.70;1.60;;;;;;;20.30;60.65;101829.97;1778212;79;21577;-47
2021/05/26 00:36:39;;;;;;;2.58;1.55;;;;;;;20.29;60.62;101825.63;1767925;79;21064;-50
2021/05/26 00:39:06;;;;;;;2.45;1.35;;;;;;;20.28;60.64;101822.58;1763650;80;21095;-47
2021/05/26 00:41:33;;;;;;;1.82;1.20;;;;;;;20.28;60.68;101823.90;1771774;79;21057;-50
2021/05/26 00:44:00;;;;;;;1.40;1.30;;;;;;;20.28;60.71;101821.25;1776560;79;21080;-52
2021/05/26 00:46:27;;;;;;;1.45;1.22;;;;;;;20.28;60.74;101821.25;1758898;80;21066;-51
2021/05/26 00:48:54;;;;;;;2.05;1.25;;;;;;;20.27;60.80;101814.27;1764545;79;21106;-49
2021/05/26 00:51:20;;;;;;;1.65;1.55;;;;;;;20.27;60.86;101806.34;1763493;79;21031;-48
2021/05/26 00:53:48;;;;;;;1.35;1.25;;;;;;;20.27;61.07;101812.95;1766634;80;21166;-50
2021/05/26 00:56:16;;;;;;;1.85;1.30;;;;;;;20.26;61.21;101807.25;1782022;80;21048;-49
2021/05/26 00:58:43;;;;;;;1.40;1.30;;;;;;;20.27;61.33;101808.98;1777439;79;21102;-52
2021/05/26 01:01:10;;;;;;;1.67;1.27;;;;;;;20.27;61.36;101801.05;1776356;80;21556;-49
2021/05/26 01:03:38;;;;;;;2.02;1.60;;;;;;;20.28;61.46;101800.59;1774687;79;21151;-48
2021/05/26 01:06:06;;;;;;;2.30;1.80;;;;;;;20.27;61.55;101798.41;1779747;79;21068;-50
2021/05/26 01:08:33;;;;;;;1.72;1.40;;;;;;;20.26;61.62;101794.91;1771405;79;21903;-49
2021/05/26 01:11:05;;;;;;;2.33;1.67;;;;;;;20.28;61.56;101789.53;1787078;79;21152;-49
2021/05/26 01:13:33;;;;;;;2.98;2.10;;;;;;;20.28;61.55;101789.53;1779222;79;21090;-48
2021/05/26 01:16:02;;;;;;;2.00;1.80;;;;;;;20.28;61.62;101785.57;1775208;79;21094;-50
2021/05/26 01:18:32;;;;;;;3.75;1.70;;;;;;;20.28;61.64;101786.89;1773245;79;21127;-48
2021/05/26 01:21:03;;;;;;;2.33;1.82;;;;;;;20.28;61.80;101781.61;1705114;83;21043;-50
2021/05/26 01:23:30;;;;;;;4.17;2.00;;;;;;;20.27;61.89;101779.91;1702175;82;21115;-50
2021/05/26 01:26:00;;;;;;;2.05;1.75;;;;;;;20.28;61.98;101780.77;1701259;83;21131;-50
2021/05/26 01:28:29;;;;;;;2.37;2.00;;;;;;;20.28;62.08;101775.48;1693996;83;21056;-49
2021/05/26 01:30:57;;;;;;;2.30;2.10;;;;;;;20.28;62.17;101781.61;1701277;82;21691;-48
2021/05/26 01:33:25;;;;;;;3.40;2.10;;;;;;;20.27;62.13;101771.98;1696969;83;21088;-46
2021/05/26 01:35:51;;;;;;;2.80;2.00;;;;;;;20.26;62.26;101773.76;1703053;83;21063;-47
2021/05/26 01:38:21;;;;;;;3.30;2.37;;;;;;;20.25;62.41;101767.23;1699105;83;21055;-50
2021/05/26 01:40:49;;;;;;;2.52;2.30;;;;;;;20.25;62.42;101771.19;1701566;83;21044;-50
2021/05/26 01:43:17;;;;;;;3.33;2.00;;;;;;;20.24;62.52;101774.75;1639233;86;21079;-47
2021/05/26 01:45:45;;;;;;;3.80;2.22;;;;;;;20.22;62.47;101771.31;1609325;88;21634;-49
2021/05/26 01:48:12;;;;;;;3.98;3.00;;;;;;;20.22;62.52;101777.47;1613332;88;21103;-47
2021/05/26 01:50:42;;;;;;;2.55;2.35;;;;;;;20.22;62.59;101779.24;1615728;88;21176;-47
2021/05/26 01:53:10;;;;;;;3.95;2.10;;;;;;;20.22;62.54;101779.24;1608904;88;21052;-49
2021/05/26 01:55:39;;;;;;;2.58;1.90;;;;;;;20.21;62.62;101787.66;1606813;88;21055;-47
2021/05/26 01:58:07;;;;;;;2.92;2.45;;;;;;;20.20;62.68;101786.38;1638158;84;21076;-47
2021/05/26 02:00:44;;;;;;;;;;;;;;;20.20;62.63;101783.74;1671262;85;21088;-49
2021/05/26 02:03:13;;;;;;;2.30;2.08;;;;;;;20.21;62.57;101785.47;1663642;85;20154;-49
2021/05/26 02:05:40;;;;;;;4.35;2.20;;;;;;;20.19;62.60;101789.94;1690781;83;21087;-49
2021/05/26 02:08:07;;;;;;;2.40;2.20;;;;;;;20.18;62.64;101797.45;1721750;81;21088;-48
2021/05/26 02:13:20;;;;;;;3.12;2.00;;;;;;;20.16;62.73;101792.70;1746771;80;21064;-49
2021/05/26 02:15:57;;;;;;;2.62;2.15;;;;;;;20.16;62.79;101796.67;1742844;81;21057;-51
2021/05/26 02:18:25;;;;;;;2.77;2.58;;;;;;;20.15;62.89;101801.09;1745611;81;21067;-51
2021/05/26 02:20:52;;;;;;;1.90;1.80;;;;;;;20.16;63.00;101801.95;1749546;81;21045;-48
2021/05/26 02:23:19;;;;;;;2.05;1.80;;;;;;;20.16;63.00;101797.99;1744800;81;21575;-50
2021/05/26 02:25:46;;;;;;;2.25;2.05;;;;;;;20.16;63.01;101802.82;1735983;81;21107;-47
2021/05/26 02:28:14;;;;;;;2.25;2.05;;;;;;;20.16;62.99;101798.86;1726852;81;21090;-50
2021/05/26 02:30:41;;;;;;;3.02;2.10;;;;;;;20.17;63.03;101798.41;1739204;81;21045;-50
2021/05/26 02:33:09;;;;;;;4.15;2.10;;;;;;;20.18;63.03;101797.45;1709182;82;21127;-50
2021/05/26 02:35:37;;;;;;;4.33;2.60;;;;;;;20.19;63.09;101797.87;1779802;79;21012;-49
2021/05/26 02:38:04;;;;;;;2.27;2.08;;;;;;;20.20;63.09;101796.95;1778847;79;21052;-49
2021/05/26 02:40:35;;;;;;;2.25;2.00;;;;;;;20.22;63.01;101805.67;1770726;79;21051;-47
2021/05/26 02:43:04;;;;;;;;;;;;;;;20.22;62.93;101803.03;1768166;79;21583;-50
2021/05/26 02:45:32;;;;;;;1.70;1.60;;;;;;;20.22;62.89;101797.75;1780611;79;20158;-47
2021/05/26 02:47:59;;;;;;;3.33;1.85;;;;;;;20.23;62.90;101805.63;1773207;79;21114;-50
2021/05/26 02:50:28;;;;;;;2.10;1.90;;;;;;;20.25;62.85;101800.27;1763831;80;21024;-49
2021/05/26 02:52:55;;;;;;;2.83;1.90;;;;;;;20.27;62.85;101803.70;1781983;79;21063;-48
2021/05/26 02:55:23;;;;;;;1.92;1.80;;;;;;;20.28;62.79;101803.62;1776578;79;21028;-47
2021/05/26 02:57:54;;;;;;;2.95;1.90;;;;;;;20.31;62.79;101813.20;1703389;83;21038;-50
2021/05/26 03:00:35;;;;;;;3.27;1.90;;;;;;;20.33;62.76;101816.63;1702523;82;21124;-46
2021/05/26 03:03:09;;;;;;;3.40;2.20;;;;;;;20.35;62.71;101802.02;1677973;85;21053;-50
2021/05/26 03:05:38;;;;;;;2.20;2.00;;;;;;;20.37;62.69;101812.92;1684713;85;21101;-50
2021/05/26 03:08:05;;;;;;;2.95;2.20;;;;;;;20.38;62.64;101826.52;1684035;85;21556;-47
2021/05/26 03:10:35;;;;;;;2.85;1.75;;;;;;;20.42;62.62;101826.80;1666879;85;21269;-50
2021/05/26 03:13:03;;;;;;;2.47;2.02;;;;;;;20.46;62.57;101828.38;1685187;85;21113;-48
2021/05/26 03:15:31;;;;;;;2.72;1.80;;;;;;;20.49;62.59;101833.51;1684440;85;21185;-47
2021/05/26 03:17:59;;;;;;;2.10;1.90;;;;;;;20.52;62.61;101829.41;1685737;85;21033;-50
2021/05/26 03:20:25;;;;;;;2.05;1.70;;;;;;;20.55;62.66;101833.23;1684934;85;21022;-47
2021/05/26 03:22:54;;;;;;;3.12;1.90;;;;;;;20.59;62.76;101832.16;1648096;87;21101;-50
2021/05/26 03:25:20;;;;;;;2.20;1.95;;;;;;;20.64;62.76;101839.88;1648946;87;21106;-49
2021/05/26 03:27:51;;;;;;;3.22;2.30;;;;;;;20.68;62.84;101844.97;1649220;87;21065;-47
2021/05/26 03:30:20;;;;;;;2.05;1.85;;;;;;;20.76;63.31;101846.79;1649137;87;21078;-49
2021/05/26 03:32:47;;;;;;;1.90;1.65;;;;;;;20.93;63.72;101840.25;1649104;87;21173;-49
2021/05/26 03:35:14;;;;;;;1.60;1.50;;;;;;;21.26;63.44;101847.52;1663354;85;21104;-51
2021/05/26 03:37:41;;;;;;;1.85;1.75;;;;;;;21.71;62.15;101851.86;1680578;85;21652;-47
2021/05/26 03:40:11;;;;;;;5.25;1.75;;;;;;;22.21;60.76;101848.83;1658591;85;21046;-50
2021/05/26 03:42:39;;;;;;;2.02;1.57;;;;;;;22.77;59.33;101850.25;1658385;85;21085;-50
2021/05/26 03:45:09;;;;;;;1.77;1.47;;;;;;;23.37;57.48;101846.81;1671511;85;21076;-52
2021/05/26 03:47:38;;;;;;;2.02;1.40;;;;;;;23.90;55.67;101836.57;1681309;85;21025;-49
2021/05/26 03:50:07;;;;;;;1.65;1.55;;;;;;;24.37;54.25;101836.36;1681186;85;21109;-49
2021/05/26 03:52:33;;;;;;;1.47;1.37;;;;;;;24.74;53.20;101842.91;1681531;85;21057;-50
2021/05/26 03:55:01;;;;;;;3.12;1.47;;;;;;;25.08;52.07;101842.95;1681607;85;21135;-50
2021/05/26 03:57:27;;;;;;;3.92;1.52;;;;;;;25.34;51.12;101838.95;1681088;85;21072;-53
2021/05/26 03:59:54;;;;;;;1.50;1.22;;;;;;;25.49;50.57;101845.11;1736313;78;21030;-48
2021/05/26 04:02:22;;;;;;;3.98;1.70;;;;;;;25.56;50.08;101844.59;1768871;80;21000;-50
2021/05/26 04:04:49;;;;;;;1.87;1.42;;;;;;;25.54;49.68;101845.64;1774838;80;21072;-50
2021/05/26 04:07:19;;;;;;;2.37;1.35;;;;;;;25.39;49.68;101850.14;1766941;79;21576;-49
2021/05/26 04:09:47;;;;;;;1.90;1.70;;;;;;;25.17;50.04;101849.84;1782328;79;21615;-49
2021/05/26 04:12:15;;;;;;;3.12;2.60;;;;;;;24.93;50.45;101852.78;1782319;79;21011;-48
2021/05/26 04:14:52;;;;;;;1.52;1.42;;;;;;;24.69;50.91;101852.98;1759855;80;21040;-46
2021/05/26 04:17:37;;;;;;;2.50;1.30;;;;;;;24.43;51.52;101851.08;1791770;79;21025;-51
2021/05/26 04:20:18;;;;;;;1.67;1.42;;;;;;;24.16;52.20;101855.81;1767808;79;21555;-47
2021/05/26 04:22:44;;;;;;;2.45;1.65;;;;;;;23.92;52.77;101853.28;1781824;79;21044;-46
2021/05/26 04:25:13;;;;;;;1.67;1.47;;;;;;;23.72;53.35;101861.56;1775596;79;21551;-47
2021/05/26 04:27:40;;;;;;;2.35;1.65;;;;;;;23.55;54.04;101855.08;1775846;79;21060;-51
2021/05/26 04:30:10;;;;;;;2.27;1.60;;;;;;;23.41;54.57;101851.87;1773766;80;21024;-48
2021/05/26 04:32:39;;;;;;;2.20;1.70;;;;;;;23.29;55.00;101851.68;1779631;79;21056;-49
2021/05/26 04:35:07;;;;;;;1.50;1.40;;;;;;;23.20;55.33;101860.19;1775488;79;21147;-46
2021/05/26 04:37:34;;;;;;;3.10;2.12;;;;;;;23.10;55.66;101865.64;1768333;79;21039;-48
2021/05/26 04:40:01;;;;;;;1.70;1.60;;;;;;;23.03;56.03;101865.58;1781065;79;21033;-48
2021/05/26 04:42:28;;;;;;;1.65;1.55;;;;;;;22.97;56.20;101867.25;1762958;79;21119;-48
2021/05/26 04:44:55;;;;;;;3.92;1.80;;;;;;;22.92;56.39;101866.17;1766414;79;21024;-46
2021/05/26 04:47:22;;;;;;;1.95;1.72;;;;;;;22.89;56.61;101874.78;1772547;79;21612;-46
2021/05/26 04:49:50;;;;;;;2.25;2.05;;;;;;;22.86;56.83;101879.78;1773557;79;21080;-48
2021/05/26 04:52:19;;;;;;;2.62;1.62;;;;;;;22.85;56.96;101879.88;1774192;80;21032;-49
2021/05/26 04:54:45;;;;;;;3.55;1.95;;;;;;;22.83;57.04;101874.66;1780250;79;22181;-50
2021/05/26 04:57:12;;;;;;;2.65;1.72;;;;;;;22.83;57.22;101884.41;1770462;79;21036;-50
2021/05/26 04:59:40;;;;;;;2.05;1.72;;;;;;;22.85;57.39;101885.19;1778652;79;21115;-49
2021/05/26 05:02:07;;;;;;;2.72;1.75;;;;;;;22.87;57.46;101878.00;1783461;78;21603;-51
2021/05/26 05:04:33;;;;;;;3.25;2.22;;;;;;;22.91;57.49;101879.54;1773673;79;21546;-50
2021/05/26 05:07:00;;;;;;;3.50;2.08;;;;;;;22.97;57.51;101882.72;1765237;79;21053;-50
2021/05/26 05:09:27;;;;;;;3.20;2.00;;;;;;;23.08;57.18;101888.77;1733777;81;21398;-48
2021/05/26 05:11:53;;;;;;;2.12;1.62;;;;;;;23.17;57.00;101884.25;1716388;82;21053;-49
2021/05/26 05:14:20;;;;;;;2.92;1.67;;;;;;;23.29;56.87;101886.20;1711349;82;21053;-52
2021/05/26 05:16:48;;;;;;;3.12;1.55;;;;;;;23.42;56.62;101883.28;1710628;82;21088;-51
2021/05/26 05:19:16;;;;;;;1.65;1.52;;;;;;;23.59;56.12;101879.19;1714214;82;21080;-47
2021/05/26 05:21:44;;;;;;;1.60;1.50;;;;;;;23.76;55.52;101883.52;1715211;81;21077;-50
2021/05/26 05:24:12;;;;;;;1.70;1.60;;;;;;;23.95;54.94;101876.15;1708482;82;21528;-49
2021/05/26 05:26:39;;;;;;;2.25;1.50;;;;;;;24.12;54.32;101886.67;1708393;82;21112;-47
2021/05/26 05:29:06;;;;;;;1.40;1.30;;;;;;;24.30;53.92;101890.05;1707372;82;21044;-52
2021/05/26 05:31:33;;;;;;;2.22;1.70;;;;;;;24.48;53.47;101898.22;1708557;83;21026;-47
2021/05/26 05:33:59;;;;;;;1.67;1.45;;;;;;;24.71;52.95;101897.66;1706403;83;21060;-50
2021/05/26 05:36:26;;;;;;;1.60;1.40;;;;;;;24.98;51.87;101897.25;1702110;82;21080;-52
2021/05/26 05:38:53;;;;;;;3.00;1.35;;;;;;;25.26;51.14;101901.21;1780915;80;21162;-49
2021/05/26 05:41:20;;;;;;;2.50;1.72;;;;;;;25.55;50.43;101908.20;1785983;79;21059;-52
2021/05/26 05:43:46;;;;;;;2.00;1.90;;;;;;;25.81;50.00;101913.97;1771006;80;21028;-48
2021/05/26 05:46:13;;;;;;;3.42;1.90;;;;;;;26.07;49.06;101919.37;1770091;79;21079;-51
2021/05/26 05:48:40;;;;;;;2.50;2.02;;;;;;;26.22;48.26;101925.00;1770299;79;21627;-51
2021/05/26 05:51:07;;;;;;;6.30;2.62;;;;;;;26.22;48.09;101919.66;1777950;79;21586;-48
2021/05/26 05:53:34;;;;;;;2.83;2.10;;;;;;;26.17;47.99;101920.48;1770996;79;21524;-50
2021/05/26 05:56:02;;;;;;;1.87;1.77;;;;;;;26.06;48.23;101917.64;1765058;80;21637;-50
2021/05/26 05:58:29;;;;;;;2.47;2.00;;;;;;;25.93;48.32;101915.42;1769830;79;21552;-49
2021/05/26 06:00:57;;;;;;;2.92;1.52;;;;;;;25.79;48.58;101921.22;1782265;79;21035;-48
2021/05/26 06:03:25;;;;;;;2.22;1.82;;;;;;;25.66;48.86;101928.31;1778400;80;21572;-50
2021/05/26 06:05:52;;;;;;;1.50;1.40;;;;;;;25.58;49.19;101933.77;1774778;80;21617;-47
2021/05/26 06:08:21;;;;;;;1.82;1.72;;;;;;;25.50;49.33;101934.75;1773383;80;21555;-47
2021/05/26 06:10:48;;;;;;;1.80;1.70;;;;;;;25.44;49.35;101939.15;1769490;79;21063;-48
2021/05/26 06:13:15;;;;;;;2.05;1.50;;;;;;;25.36;49.48;101939.63;1776920;79;21070;-47
2021/05/26 06:15:42;;;;;;;2.25;1.57;;;;;;;25.26;49.65;101951.83;1776678;79;21060;-51
2021/05/26 06:18:08;;;;;;;2.77;1.40;;;;;;;25.18;50.01;101964.78;1764422;80;21037;-48
2021/05/26 06:20:36;;;;;;;1.40;1.30;;;;;;;25.09;50.06;101972.02;1774633;80;21060;-47
2021/05/26 06:23:03;;;;;;;2.40;1.72;;;;;;;25.00;50.30;101971.24;1779226;80;21542;-49
2021/05/26 06:25:31;;;;;;;3.70;1.70;;;;;;;24.92;50.61;101970.88;1774165;79;21139;-48
2021/05/26 06:27:57;;;;;;;2.60;1.98;;;;;;;24.84;50.76;101971.83;1738950;80;21048;-46
2021/05/26 06:30:25;;;;;;;2.42;2.27;;;;;;;24.77;51.17;101981.16;1746720;81;21056;-51
2021/05/26 06:32:52;;;;;;;2.77;2.58;;;;;;;24.73;51.24;101976.94;1729219;82;21065;-47
2021/05/26 06:35:19;;;;;;;2.40;2.30;;;;;;;24.70;51.34;101969.13;1710393;82;21048;-50
2021/05/26 06:37:45;;;;;;;2.40;2.30;;;;;;;24.69;51.21;101979.41;1715495;82;21044;-50
2021/05/26 06:40:14;;;;;;;2.60;2.40;;;;;;;24.67;51.23;101982.61;1774612;79;21063;-50
2021/05/26 06:42:41;;;;;;;2.37;2.08;;;;;;;24.68;51.22;101983.01;1780655;79;21520;-47
2021/05/26 06:45:10;;;;;;;4.42;2.20;;;;;;;24.69;51.06;101980.74;1777151;79;21071;-50
2021/05/26 06:47:39;;;;;;;2.30;1.85;;;;;;;24.71;50.95;101982.84;1769487;80;21487;-47
2021/05/26 06:50:07;;;;;;;2.50;2.30;;;;;;;24.72;50.79;101992.52;1766924;79;21068;-48
2021/05/26 06:52:34;;;;;;;2.30;2.10;;;;;;;24.74;50.90;101991.98;1775944;80;21592;-48
2021/05/26 06:55:02;;;;;;;2.27;2.10;;;;;;;24.78;50.97;101989.52;1774172;79;21065;-48
2021/05/26 06:57:28;;;;;;;2.30;2.15;;;;;;;24.81;50.94;101991.50;1783239;79;21557;-50
2021/05/26 06:59:55;;;;;;;2.25;2.12;;;;;;;24.86;50.80;101992.55;1786493;79;21599;-47
2021/05/26 07:02:22;;;;;;;2.15;1.90;;;;;;;24.91;50.36;101985.16;1762401;80;21060;-48
2021/05/26 07:04:49;;;;;;;3.02;2.40;;;;;;;24.95;50.25;101995.99;1769834;80;21060;-49
2021/05/26 07:07:17;;;;;;;2.37;2.17;;;;;;;24.98;50.22;101995.78;1770065;79;21072;-48
2021/05/26 07:09:43;;;;;;;3.00;2.10;;;;;;;25.01;50.07;101994.28;1769629;80;21563;-49
2021/05/26 07:12:10;;;;;;;2.98;2.08;;;;;;;25.06;49.98;101988.17;1765853;79;21072;-49
2021/05/26 07:14:39;;;;;;;3.45;2.00;;;;;;;25.14;49.79;101991.23;1775765;80;21044;-48
2021/05/26 07:17:05;;;;;;;2.00;1.90;;;;;;;25.27;49.55;101997.48;1777003;79;21011;-48
2021/05/26 07:19:34;;;;;;;2.33;2.12;;;;;;;25.41;49.13;102002.81;1771065;79;21025;-49
2021/05/26 07:22:00;;;;;;;3.00;2.10;;;;;;;25.53;48.65;102000.70;1765372;80;21104;-48
2021/05/26 07:24:27;;;;;;;5.62;2.17;;;;;;;25.64;48.37;101995.53;1779594;80;21063;-51
2021/05/26 07:26:54;;;;;;;2.10;2.00;;;;;;;25.71;48.14;101992.86;1773313;79;21527;-49
2021/05/26 07:29:21;;;;;;;2.12;1.75;;;;;;;25.77;47.96;101990.27;1776475;79;21065;-49
2021/05/26 07:31:49;;;;;;;2.15;2.05;;;;;;;25.81;47.96;101991.30;1765572;79;21064;-49
2021/05/26 07:34:16;;;;;;;2.52;2.33;;;;;;;25.86;47.85;101987.47;1772290;80;21032;-47
2021/05/26 07:36:43;;;;;;;2.30;2.10;;;;;;;25.84;48.00;101991.08;1778172;79;21064;-49
2021/05/26 07:39:09;;;;;;;2.00;1.90;;;;;;;25.84;47.75;101989.75;1778099;79;21025;-49
2021/05/26 07:41:37;;;;;;;2.70;2.50;;;;;;;25.80;47.67;101989.57;1782391;79;21052;-47
2021/05/26 07:44:05;;;;;;;2.22;2.02;;;;;;;25.76;47.94;101988.06;1775776;80;21092;-49
2021/05/26 07:46:31;;;;;;;3.87;2.10;;;;;;;25.71;48.07;101990.20;1778321;80;21016;-51
2021/05/26 07:49:00;;;;;;;2.17;1.98;;;;;;;25.66;48.23;101996.30;1793158;79;21587;-48
2021/05/26 07:51:28;;;;;;;2.20;2.10;;;;;;;25.62;48.41;102000.58;1777980;79;21076;-47
2021/05/26 07:53:57;;;;;;;2.08;1.98;;;;;;;25.59;48.62;102003.47;1776070;79;21080;-47
2021/05/26 07:56:24;;;;;;;2.00;1.90;;;;;;;25.58;48.80;102006.59;1776022;79;21039;-49
2021/05/26 07:58:52;;;;;;;2.17;1.98;;;;;;;25.61;48.94;102003.75;1761150;79;21594;-52
2021/05/26 08:01:19;;;;;;;1.82;1.72;;;;;;;25.63;48.75;101997.84;1777889;79;21526;-50
2021/05/26 08:03:46;;;;;;;1.82;1.72;;;;;;;25.63;48.66;101997.84;1777953;79;21080;-47
2021/05/26 08:06:13;;;;;;;5.28;2.10;;;;;;;25.62;48.71;101992.11;1773963;79;21032;-49
2021/05/26 08:08:40;;;;;;;2.47;2.27;;;;;;;25.60;48.77;101992.69;1762215;80;21049;-49
2021/05/26 08:11:07;;;;;;;2.10;1.90;;;;;;;25.57;48.89;101979.58;1769997;80;21036;-52
2021/05/26 08:13:34;;;;;;;2.33;1.70;;;;;;;25.55;49.19;101985.49;1776963;79;21040;-50
2021/05/26 08:16:03;;;;;;;2.70;2.17;;;;;;;25.54;49.33;101985.09;1720101;82;21607;-47
2021/05/26 08:18:29;;;;;;;3.72;1.80;;;;;;;25.54;49.28;101981.09;1706830;83;21044;-47
2021/05/26 08:20:58;;;;;;;2.40;1.85;;;;;;;25.53;49.42;101978.03;1710016;82;21040;-48
2021/05/26 08:23:26;;;;;;;1.87;1.77;;;;;;;25.54;49.46;101977.09;1769157;80;21072;-48
2021/05/26 08:25:52;;;;;;;2.47;1.75;;;;;;;25.57;49.40;101984.91;1769946;79;21592;-49
2021/05/26 08:28:18;;;;;;;2.22;2.02;;;;;;;25.60;49.47;101982.50;1769329;79;21024;-48
2021/05/26 08:30:45;;;;;;;2.92;2.12;;;;;;;25.63;49.34;101977.84;1762534;79;20996;-49
2021/05/26 08:33:12;;;;;;;2.10;2.00;;;;;;;25.66;49.31;101973.63;1774380;79;21032;-47
2021/05/26 08:35:38;;;;;;;2.10;2.00;;;;;;;25.66;49.16;101978.96;1780971;79;21567;-50
2021/05/26 08:38:06;;;;;;;2.35;1.87;;;;;;;25.69;49.13;101992.11;1776680;79;21076;-49
2021/05/26 08:40:33;;;;;;;2.58;2.42;;;;;;;25.68;49.28;101985.05;1774039;79;21045;-50
2021/05/26 08:43:00;;;;;;;2.27;2.10;;;;;;;25.69;49.46;101991.24;1770172;79;21573;-47
2021/05/26 08:45:27;;;;;;;2.12;2.00;;;;;;;25.69;49.28;101994.77;1790838;79;21071;-47
2021/05/26 08:47:54;;;;;;;2.35;2.15;;;;;;;25.70;49.18;101988.47;1773335;79;21076;-50
2021/05/26 08:50:21;;;;;;;2.17;1.98;;;;;;;25.71;49.40;101995.53;1773896;79;21167;-53
2021/05/26 08:52:47;;;;;;;3.33;2.22;;;;;;;25.73;49.32;101998.95;1756103;79;21066;-50
2021/05/26 08:55:14;;;;;;;2.52;2.30;;;;;;;25.76;49.45;101999.23;1760718;79;21096;-50
2021/05/26 08:57:41;;;;;;;3.47;1.90;;;;;;;25.79;49.16;102009.20;1774211;78;21575;-48
2021/05/26 09:00:09;;;;;;;2.10;2.00;;;;;;;25.82;48.91;102004.99;1780986;80;21067;-51
2021/05/26 09:02:36;;;;;;;2.27;2.10;;;;;;;25.83;49.01;102007.19;1777445;80;21040;-48
2021/05/26 09:05:05;;;;;;;2.30;2.10;;;;;;;25.83;49.00;102002.72;1755396;79;21065;-49
2021/05/26 09:07:35;;;;;;;2.15;2.02;;;;;;;25.83;49.15;102002.72;1700829;82;21064;-49
2021/05/26 09:10:06;;;;;;;3.10;2.60;;;;;;;25.86;49.20;102006.14;1736086;80;21068;-52
2021/05/26 09:12:37;;;;;;;2.80;2.50;;;;;;;25.86;49.11;101999.47;1684479;84;21075;-49
2021/05/26 09:15:14;;;;;;;3.17;2.65;;;;;;;25.89;49.00;101995.25;1669988;84;21065;-48
2021/05/26 09:17:40;;;;;;;2.17;2.08;;;;;;;25.89;49.00;101995.25;1675139;85;21049;-48
2021/05/26 09:20:27;;;;;;;3.00;2.00;;;;;;;25.89;49.04;101997.92;1671666;85;21112;-47
2021/05/26 09:23:07;;;;;;;2.62;2.42;;;;;;;25.88;49.08;102000.23;1655606;86;21073;-48
2021/05/26 09:25:38;;;;;;;1.98;1.87;;;;;;;25.90;49.04;102001.84;1648977;85;21096;-50
2021/05/26 09:28:35;;;;;;;2.08;1.87;;;;;;;25.93;48.93;101999.42;1669852;85;21170;-49
2021/05/26 09:31:08;;;;;;;2.00;1.90;;;;;;;25.95;48.90;101997.52;1734486;82;21064;-48
2021/05/26 09:33:41;;;;;;;2.12;2.00;;;;;;;25.96;48.91;101995.23;1716947;81;21052;-50
2021/05/26 09:36:25;;;;;;;3.02;2.50;;;;;;;25.96;48.92;101997.91;1740220;82;21145;-51
2021/05/26 09:38:58;;;;;;;3.08;2.20;;;;;;;25.96;48.87;101994.77;1728319;82;21063;-49
2021/05/26 09:41:32;;;;;;;2.45;2.25;;;;;;;25.97;48.67;101995.59;1728424;82;21040;-49
2021/05/26 09:44:11;;;;;;;2.12;2.02;;;;;;;25.95;48.73;102004.18;1701739;82;21162;-50
2021/05/26 09:46:39;;;;;;;3.17;2.87;;;;;;;25.94;48.84;101998.48;1700080;82;21072;-48
2021/05/26 09:49:09;;;;;;;2.55;2.35;;;;;;;25.94;48.85;101995.82;1727824;82;21132;-50
2021/05/26 09:51:50;;;;;;;2.52;2.27;;;;;;;25.94;48.88;101993.16;1730215;81;21127;-47
2021/05/26 09:54:26;;;;;;;6.22;2.33;;;;;;;25.96;48.95;101996.57;1730464;82;21107;-55
2021/05/26 09:57:05;;;;;;;2.70;2.50;;;;;;;25.99;49.01;101990.55;1726860;81;21087;-50
2021/05/26 09:59:32;;;;;;;2.40;2.15;;;;;;;26.03;48.82;101985.89;1721282;81;21091;-48
2021/05/26 10:01:59;;;;;;;2.62;2.42;;;;;;;26.06;48.56;101987.86;1721404;82;21085;-49
2021/05/26 10:04:26;;;;;;;3.85;2.65;;;;;;;26.08;48.49;101987.78;1724577;82;21075;-50
2021/05/26 10:07:11;;;;;;;2.77;2.58;;;;;;;26.09;48.54;101988.17;1733071;82;21136;-48
2021/05/26 10:09:40;;;;;;;3.20;2.90;;;;;;;26.10;48.63;101985.39;1740608;80;21519;-47
2021/05/26 10:12:12;;;;;;;2.83;2.62;;;;;;;26.10;48.45;101980.53;1788296;79;21009;-48
2021/05/26 10:14:39;;;;;;;3.10;2.90;;;;;;;26.06;48.34;101978.99;1781908;79;22279;-50
2021/05/26 10:17:08;;;;;;;2.75;2.50;;;;;;;26.02;48.59;101972.16;1771440;80;21052;-47
2021/05/26 10:19:36;;;;;;;2.50;2.30;;;;;;;25.99;48.81;101971.88;1774902;80;21571;-47
2021/05/26 10:22:04;;;;;;;4.10;2.40;;;;;;;25.97;48.94;101983.59;1776977;80;21138;-49
2021/05/26 10:24:31;;;;;;;2.50;2.30;;;;;;;25.96;48.83;101983.23;1784579;79;21052;-54
2021/05/26 10:27:01;;;;;;;2.40;2.20;;;;;;;25.95;48.89;101979.70;1765658;80;21175;-51
2021/05/26 10:29:33;;;;;;;2.47;2.22;;;;;;;25.95;48.74;101984.17;1766784;80;21067;-51
2021/05/26 10:32:16;;;;;;;3.67;2.60;;;;;;;25.97;48.82;101984.93;1771915;79;21054;-49
2021/05/26 10:34:51;;;;;;;2.50;2.30;;;;;;;25.96;48.58;101980.57;1748641;80;21039;-48
2021/05/26 10:37:38;;;;;;;2.95;2.37;;;;;;;25.97;48.82;101983.13;1736856;80;21087;-50
2021/05/26 10:40:32;;;;;;;3.20;2.45;;;;;;;25.98;48.79;101973.32;1755812;81;21047;-52
2021/05/26 10:43:23;;;;;;;3.15;2.70;;;;;;;26.00;48.78;101971.41;1735793;80;21103;-49
2021/05/26 10:45:52;;;;;;;;;;;;;;;26.01;48.68;101969.13;1752039;80;21055;-49
2021/05/26 10:48:52;;;;;;;4.45;2.30;;;;;;;26.03;48.60;101969.88;1748367;80;20176;-48
2021/05/26 10:51:19;;;;;;;4.60;2.62;;;;;;;26.02;48.61;101964.16;1748904;80;21673;-50
2021/05/26 10:53:47;;;;;;;2.30;2.05;;;;;;;26.04;48.66;101967.57;1760072;81;21068;-50
2021/05/26 10:56:36;;;;;;;2.90;2.42;;;;;;;26.04;48.74;101958.23;1759090;80;21693;-49
2021/05/26 10:59:12;;;;;;;2.50;2.20;;;;;;;26.08;48.57;101961.11;1741213;81;21040;-50
2021/05/26 11:02:08;;;;;;;2.70;2.50;;;;;;;26.09;48.38;101965.50;1741948;81;21570;-50
2021/05/26 11:04:40;;;;;;;3.72;2.65;;;;;;;26.11;48.38;101961.74;1741504;81;21619;-48
2021/05/26 11:07:22;;;;;;;2.50;2.30;;;;;;;26.13;48.24;101956.33;1756775;80;20996;-47
2021/05/26 11:10:01;;;;;;;2.77;2.58;;;;;;;26.14;47.94;101960.22;1750240;80;21511;-50
2021/05/26 11:12:57;;;;;;;2.90;2.60;;;;;;;26.14;47.94;101960.22;1764221;80;21114;-51
2021/05/26 11:15:42;;;;;;;5.45;3.27;;;;;;;26.12;47.99;101958.61;1776421;79;21015;-51
2021/05/26 11:20:46;;;;;;;5.28;2.60;;;;;;;26.03;48.49;101964.55;1782259;78;21045;-50
2021/05/26 11:23:15;;;;;;;2.70;2.50;;;;;;;26.01;48.65;101965.13;1768720;80;21088;-50
2021/05/26 11:25:55;;;;;;;2.52;2.33;;;;;;;26.03;48.49;101967.21;1770700;79;21039;-50
2021/05/26 11:28:28;;;;;;;2.92;2.52;;;;;;;26.03;48.43;101968.55;1781205;79;21044;-47
2021/05/26 11:31:04;;;;;;;3.02;2.60;;;;;;;26.09;48.25;101962.33;1747828;80;21610;-49
2021/05/26 11:33:31;;;;;;;2.62;2.42;;;;;;;26.13;48.27;101961.66;1741843;80;21096;-47
2021/05/26 11:36:05;;;;;;;2.90;2.70;;;;;;;26.13;48.27;101961.66;1747561;80;21060;-50
2021/05/26 11:38:33;;;;;;;2.80;2.60;;;;;;;26.15;47.99;101961.08;1755094;80;21520;-47
2021/05/26 11:41:02;;;;;;;3.12;2.92;;;;;;;26.18;48.08;101967.53;1737657;80;21602;-48
2021/05/26 11:43:33;;;;;;;3.50;3.10;;;;;;;26.18;47.93;101963.52;1746852;80;21052;-47